createdAt,value
2018-08-12T00:00:00.377Z,13.3
2018-08-12T00:00:50.725Z,13.3
2018-08-12T00:01:40.800Z,13.2
2018-08-12T00:02:30.560Z,13.2
2018-08-12T00:03:20.915Z,13.2
2018-08-12T00:04:10.732Z,13.2
2018-08-12T00:05:00.763Z,13.1
2018-08-12T00:05:51.123Z,13.2
2018-08-12T00:06:41.170Z,13.1
2018-08-12T00:07:30.970Z,13.1
2018-08-12T00:08:21.305Z,13.1
2018-08-12T00:09:11.425Z,13.1
2018-08-12T00:10:01.431Z,13.1
2018-08-12T00:10:51.222Z,13.1
2018-08-12T00:11:41.559Z,13
2018-08-12T00:12:31.618Z,13
2018-08-12T00:13:21.675Z,13
2018-08-12T00:14:11.486Z,13
2018-08-12T00:15:01.813Z,12.9
2018-08-12T00:15:51.869Z,12.9
2018-08-12T00:16:41.703Z,12.9
2018-08-12T00:17:32.021Z,12.9
2018-08-12T00:18:21.796Z,12.9
2018-08-12T00:37:15.090Z,12.6
2018-08-12T00:38:05.108Z,12.6
2018-08-12T00:38:55.432Z,12.6
2018-08-12T00:39:45.513Z,12.6
2018-08-12T00:40:35.278Z,12.5
2018-08-12T00:41:25.332Z,12.6
2018-08-12T00:42:15.686Z,12.5
2018-08-12T00:43:05.755Z,12.5
2018-08-12T00:43:55.856Z,12.5
2018-08-12T00:44:45.306Z,12.4
2018-08-12T00:45:35.951Z,12.4
2018-08-12T00:46:26.003Z,12.4
2018-08-12T00:47:16.065Z,12.4
2018-08-12T00:48:05.859Z,12.4
2018-08-12T00:48:56.193Z,12.4
2018-08-12T00:49:46.262Z,12.4
2018-08-12T00:50:36.325Z,12.4
2018-08-12T00:51:26.388Z,12.4
2018-08-12T00:52:16.575Z,12.3
2018-08-12T00:53:06.520Z,12.3
2018-08-12T00:53:56.580Z,12.3
2018-08-12T00:54:46.635Z,12.3
2018-08-12T00:55:36.702Z,12.3
2018-08-12T00:56:26.762Z,12.3
2018-08-12T00:57:16.564Z,12.3
2018-08-12T00:58:06.895Z,12.3
2018-08-12T00:58:56.951Z,12.2
2018-08-12T00:59:46.733Z,12.2
2018-08-12T01:00:37.086Z,12.2
2018-08-12T01:01:26.873Z,12.2
2018-08-12T01:02:17.207Z,12.1
2018-08-12T01:03:07.290Z,12.1
2018-08-12T01:03:57.057Z,12.1
2018-08-12T01:04:47.119Z,12.1
2018-08-12T01:05:37.461Z,12.1
2018-08-12T01:06:27.256Z,12.1
2018-08-12T01:07:17.319Z,12.1
2018-08-12T01:08:07.654Z,12.1
2018-08-12T01:08:57.725Z,12.1
2018-08-12T01:09:47.811Z,12
2018-08-12T01:10:37.848Z,12
2018-08-12T01:11:27.932Z,12
2018-08-12T01:12:17.699Z,11.9
2018-08-12T01:13:08.058Z,11.9
2018-08-12T01:13:58.131Z,11.9
2018-08-12T01:14:48.207Z,11.9
2018-08-12T01:15:37.968Z,11.9
2018-08-12T01:16:28.291Z,11.9
2018-08-12T01:17:18.072Z,11.9
2018-08-12T01:18:08.430Z,11.9
2018-08-12T01:18:58.215Z,11.9
2018-08-12T01:19:48.569Z,11.9
2018-08-12T01:20:38.644Z,11.8
2018-08-12T01:21:28.409Z,11.8
2018-08-12T01:22:18.750Z,11.8
2018-08-12T01:23:08.637Z,11.8
2018-08-12T01:23:58.875Z,11.8
2018-08-12T01:24:48.945Z,11.8
2018-08-12T01:25:39.004Z,11.8
2018-08-12T01:26:29.070Z,11.8
2018-08-12T01:27:18.850Z,11.8
2018-08-12T01:28:09.203Z,11.8
2018-08-12T01:28:59.273Z,11.8
2018-08-12T01:29:49.329Z,11.7
2018-08-12T01:30:39.406Z,11.7
2018-08-12T01:31:29.453Z,11.7
2018-08-12T01:32:19.233Z,11.7
2018-08-12T01:33:09.582Z,11.6
2018-08-12T01:33:59.361Z,11.6
2018-08-12T01:34:49.722Z,11.6
2018-08-12T01:35:39.790Z,11.6
2018-08-12T01:36:29.564Z,11.6
2018-08-12T01:37:19.623Z,11.6
2018-08-12T01:38:09.981Z,11.6
2018-08-12T01:39:00.042Z,11.6
2018-08-12T01:39:49.821Z,11.6
2018-08-12T01:40:39.871Z,11.6
2018-08-12T01:41:29.942Z,11.6
2018-08-12T01:42:20.279Z,11.6
2018-08-12T01:43:10.355Z,11.6
2018-08-12T01:44:00.419Z,11.6
2018-08-12T01:44:50.466Z,11.6
2018-08-12T01:45:40.288Z,11.6
2018-08-12T01:46:30.613Z,11.5
2018-08-12T01:47:20.664Z,11.6
2018-08-12T01:48:10.753Z,11.5
2018-08-12T01:49:00.604Z,11.5
2018-08-12T01:49:50.851Z,11.5
2018-08-12T01:50:40.631Z,11.5
2018-08-12T01:51:30.990Z,11.5
2018-08-12T01:52:21.054Z,11.4
2018-08-12T01:53:10.834Z,11.4
2018-08-12T01:54:00.894Z,11.4
2018-08-12T01:54:51.264Z,11.4
2018-08-12T01:55:41.323Z,11.4
2018-08-12T01:56:31.381Z,11.4
2018-08-12T01:57:21.441Z,11.4
2018-08-12T01:58:11.519Z,11.4
2018-08-12T01:59:01.570Z,11.4
2018-08-12T01:59:51.079Z,11.4
2018-08-12T02:00:41.706Z,11.4
2018-08-12T02:01:31.763Z,11.4
2018-08-12T02:02:21.538Z,11.4
2018-08-12T02:03:11.889Z,11.3
2018-08-12T02:04:01.672Z,11.3
2018-08-12T02:04:51.725Z,11.4
2018-08-12T02:05:42.084Z,11.3
2018-08-12T02:06:32.154Z,11.3
2018-08-12T02:07:21.942Z,11.3
2018-08-12T02:08:12.283Z,11.3
2018-08-12T02:09:02.052Z,11.3
2018-08-12T02:09:52.128Z,11.3
2018-08-12T02:10:42.196Z,11.3
2018-08-12T02:11:32.255Z,11.3
2018-08-12T02:12:22.320Z,11.3
2018-08-12T02:13:12.373Z,11.3
2018-08-12T02:14:02.731Z,11.3
2018-08-12T02:14:52.792Z,11.3
2018-08-12T02:15:42.877Z,11.3
2018-08-12T02:16:32.899Z,11.3
2018-08-12T02:17:22.706Z,11.2
2018-08-12T02:18:12.754Z,11.2
2018-08-12T02:19:03.103Z,11.2
2018-08-12T02:19:53.173Z,11.2
2018-08-12T02:20:43.238Z,11.2
2018-08-12T02:21:32.723Z,11.2
2018-08-12T02:22:23.061Z,11.2
2018-08-12T02:23:12.862Z,11.1
2018-08-12T02:24:03.503Z,11.1
2018-08-12T02:24:53.636Z,11.1
2018-08-12T02:25:43.644Z,11.1
2018-08-12T02:26:33.702Z,11.1
2018-08-12T02:27:23.765Z,11.1
2018-08-12T02:28:13.541Z,11.1
2018-08-12T02:29:03.590Z,11.1
2018-08-12T02:29:53.937Z,11.1
2018-08-12T02:30:44.000Z,11.1
2018-08-12T02:31:34.062Z,11.1
2018-08-12T02:32:24.147Z,11.1
2018-08-12T02:33:13.907Z,11.1
2018-08-12T02:34:04.285Z,11.1
2018-08-12T02:34:54.044Z,11.1
2018-08-12T02:35:44.376Z,11.1
2018-08-12T02:36:34.469Z,11.1
2018-08-12T02:37:24.231Z,11
2018-08-12T02:38:14.582Z,11
2018-08-12T02:39:04.660Z,11
2018-08-12T02:39:54.716Z,11
2018-08-12T02:40:44.511Z,11
2018-08-12T02:41:34.849Z,11
2018-08-12T02:42:24.905Z,11
2018-08-12T02:43:14.949Z,11
2018-08-12T02:44:05.029Z,11
2018-08-12T02:44:55.094Z,11
2018-08-12T02:45:45.319Z,10.9
2018-08-12T02:46:35.215Z,10.9
2018-08-12T02:47:25.280Z,10.9
2018-08-12T02:48:15.371Z,10.9
2018-08-12T02:49:05.121Z,10.9
2018-08-12T02:49:55.474Z,10.9
2018-08-12T02:50:45.260Z,10.9
2018-08-12T02:51:35.325Z,10.9
2018-08-12T02:52:25.667Z,10.9
2018-08-12T02:53:15.443Z,10.9
2018-08-12T02:54:05.802Z,10.9
2018-08-12T02:54:55.863Z,10.9
2018-08-12T02:55:45.909Z,10.9
2018-08-12T02:56:35.970Z,10.9
2018-08-12T02:57:26.044Z,10.9
2018-08-12T02:58:16.120Z,10.9
2018-08-12T02:59:05.900Z,10.9
2018-08-12T02:59:56.240Z,10.9
2018-08-12T03:00:46.313Z,10.9
2018-08-12T03:01:36.364Z,10.9
2018-08-12T03:02:25.846Z,10.9
2018-08-12T03:03:16.482Z,10.9
2018-08-12T03:04:06.263Z,10.9
2018-08-12T03:04:56.604Z,10.9
2018-08-12T03:05:46.424Z,10.9
2018-08-12T03:06:36.749Z,10.9
2018-08-12T03:07:26.519Z,10.9
2018-08-12T03:08:16.875Z,10.9
2018-08-12T03:09:06.946Z,10.9
2018-08-12T03:09:57.013Z,10.9
2018-08-12T03:10:47.056Z,10.9
2018-08-12T03:11:36.833Z,10.9
2018-08-12T03:12:27.199Z,10.9
2018-08-12T03:13:17.259Z,10.9
2018-08-12T03:14:07.328Z,10.9
2018-08-12T03:14:57.392Z,10.9
2018-08-12T03:15:47.468Z,10.9
2018-08-12T03:16:37.231Z,10.9
2018-08-12T03:17:27.563Z,10.9
2018-08-12T03:18:17.687Z,10.9
2018-08-12T03:19:07.733Z,10.9
2018-08-12T03:19:57.203Z,10.9
2018-08-12T03:20:47.825Z,10.9
2018-08-12T03:21:37.906Z,10.9
2018-08-12T03:22:28.342Z,10.9
2018-08-12T03:23:18.027Z,10.9
2018-08-12T03:24:07.823Z,10.9
2018-08-12T03:24:57.573Z,10.9
2018-08-12T03:25:47.991Z,10.9
2018-08-12T03:26:37.984Z,10.9
2018-08-12T03:27:28.353Z,10.9
2018-08-12T03:28:18.407Z,10.9
2018-08-12T03:29:08.204Z,10.9
2018-08-12T03:29:58.687Z,10.9
2018-08-12T03:30:48.756Z,10.9
2018-08-12T03:31:38.088Z,10.9
2018-08-12T03:32:28.433Z,10.9
2018-08-12T03:33:18.807Z,10.9
2018-08-12T03:34:08.857Z,10.9
2018-08-12T03:34:58.908Z,10.9
2018-08-12T03:35:48.701Z,10.9
2018-08-12T03:36:39.062Z,10.9
2018-08-12T03:37:29.097Z,10.9
2018-08-12T03:38:18.896Z,10.9
2018-08-12T03:39:08.972Z,10.9
2018-08-12T03:39:59.286Z,11
2018-08-12T03:40:49.361Z,10.9
2018-08-12T03:41:39.430Z,10.9
2018-08-12T03:42:29.491Z,10.9
2018-08-12T03:43:19.261Z,10.9
2018-08-12T03:44:09.634Z,11
2018-08-12T03:44:59.462Z,11
2018-08-12T03:45:49.757Z,11
2018-08-12T03:46:39.866Z,11
2018-08-12T03:47:29.878Z,11
2018-08-12T03:48:19.933Z,11
2018-08-12T03:49:09.730Z,11.1
2018-08-12T03:50:00.079Z,11
2018-08-12T03:50:50.145Z,11.1
2018-08-12T03:51:40.191Z,11.1
2018-08-12T03:52:30.252Z,11.1
2018-08-12T03:53:20.333Z,11.1
2018-08-12T03:54:10.389Z,11.1
2018-08-12T03:55:00.471Z,11.1
2018-08-12T03:55:50.223Z,11.1
2018-08-12T03:56:40.584Z,11.1
2018-08-12T03:57:30.633Z,11.1
2018-08-12T03:58:20.427Z,11.1
2018-08-12T03:59:10.764Z,11.1
2018-08-12T04:00:00.843Z,11.1
2018-08-12T04:00:50.896Z,11.1
2018-08-12T04:01:40.973Z,11.1
2018-08-12T04:02:30.732Z,11.1
2018-08-12T04:03:21.074Z,11.2
2018-08-12T04:04:10.581Z,11.2
2018-08-12T04:05:01.209Z,11.2
2018-08-12T04:05:50.989Z,11.2
2018-08-12T04:06:41.370Z,11.3
2018-08-12T04:07:31.114Z,11.3
2018-08-12T04:08:21.468Z,11.3
2018-08-12T04:09:11.254Z,11.3
2018-08-12T04:10:01.598Z,11.3
2018-08-12T04:10:51.357Z,11.3
2018-08-12T04:11:41.713Z,11.3
2018-08-12T04:12:31.790Z,11.3
2018-08-12T04:13:21.570Z,11.3
2018-08-12T04:14:11.907Z,11.3
2018-08-12T04:15:01.980Z,11.3
2018-08-12T04:15:52.035Z,11.3
2018-08-12T04:16:41.821Z,11.4
2018-08-12T04:17:32.164Z,11.4
2018-08-12T04:18:22.224Z,11.4
2018-08-12T04:19:12.299Z,11.4
2018-08-12T04:20:01.797Z,11.4
2018-08-12T04:20:52.425Z,11.4
2018-08-12T04:21:42.488Z,11.4
2018-08-12T04:22:32.566Z,11.4
2018-08-12T04:23:22.622Z,11.4
2018-08-12T04:24:12.685Z,11.4
2018-08-12T04:25:02.745Z,11.5
2018-08-12T04:25:52.826Z,11.5
2018-08-12T04:26:42.875Z,11.6
2018-08-12T04:27:32.935Z,11.6
2018-08-12T04:28:22.730Z,11.6
2018-08-12T04:29:13.062Z,11.6
2018-08-12T04:30:03.129Z,11.6
2018-08-12T04:30:52.919Z,11.6
2018-08-12T04:31:43.251Z,11.6
2018-08-12T04:32:33.323Z,11.6
2018-08-12T04:33:23.379Z,11.7
2018-08-12T04:34:13.452Z,11.7
2018-08-12T04:35:03.512Z,11.8
2018-08-12T04:35:53.578Z,11.8
2018-08-12T04:36:43.655Z,11.8
2018-08-12T04:37:33.458Z,11.8
2018-08-12T04:38:23.772Z,11.8
2018-08-12T04:39:13.834Z,11.8
2018-08-12T04:40:03.604Z,11.9
2018-08-12T04:40:53.672Z,11.9
2018-08-12T04:41:43.741Z,11.9
2018-08-12T04:42:33.832Z,11.9
2018-08-12T04:43:23.872Z,11.9
2018-08-12T04:44:13.924Z,12
2018-08-12T04:45:04.274Z,12.1
2018-08-12T04:45:54.472Z,12.1
2018-08-12T04:46:44.134Z,12.1
2018-08-12T04:47:34.466Z,12.2
2018-08-12T04:48:24.554Z,12.2
2018-08-12T05:06:38.998Z,13.5
2018-08-12T05:07:29.046Z,13.6
2018-08-12T05:08:18.833Z,13.7
2018-08-12T05:09:09.170Z,13.8
2018-08-12T05:09:59.239Z,13.9
2018-08-12T05:10:49.325Z,13.9
2018-08-12T05:11:39.360Z,14
2018-08-12T05:12:29.431Z,14.1
2018-08-12T05:13:19.473Z,14.3
2018-08-12T05:14:09.572Z,14.3
2018-08-12T05:14:59.320Z,14.4
2018-08-12T05:15:49.684Z,14.5
2018-08-12T05:16:39.170Z,14.6
2018-08-12T05:17:29.815Z,14.7
2018-08-12T05:18:19.581Z,14.8
2018-08-12T05:19:09.935Z,14.9
2018-08-12T05:19:59.708Z,15.1
2018-08-12T05:20:49.478Z,15.2
2018-08-12T05:21:40.115Z,15.4
2018-08-12T05:22:30.178Z,15.6
2018-08-12T05:23:20.303Z,15.8
2018-08-12T05:24:10.026Z,15.9
2018-08-12T05:25:00.371Z,16.1
2018-08-12T05:25:50.451Z,16.3
2018-08-12T05:26:40.500Z,16.6
2018-08-12T05:27:30.020Z,16.8
2018-08-12T05:29:10.699Z,17.3
2018-08-12T05:30:00.763Z,17.5
2018-08-12T05:30:50.828Z,17.8
2018-08-12T05:31:40.891Z,18
2018-08-12T05:32:30.383Z,18.3
2018-08-12T05:33:20.729Z,18.6
2018-08-12T05:34:11.065Z,18.9
2018-08-12T05:35:00.859Z,19.3
2018-08-12T05:35:50.932Z,19.6
2018-08-12T05:36:41.297Z,20
2018-08-12T05:37:31.323Z,20.4
2018-08-12T05:38:21.389Z,20.8
2018-08-12T05:40:01.521Z,21.5
2018-08-12T05:40:51.598Z,21.9
2018-08-12T05:41:41.369Z,22.2
2018-08-12T05:42:31.708Z,22.5
2018-08-12T05:43:21.502Z,22.8
2018-08-12T05:44:11.844Z,23.1
2018-08-12T05:45:01.908Z,23.3
2018-08-12T05:45:51.967Z,23.4
2018-08-12T05:46:41.750Z,23.7
2018-08-12T05:47:31.810Z,23.8
2018-08-12T05:48:21.967Z,24
2018-08-12T05:49:11.946Z,24.2
2018-08-12T05:50:02.299Z,24.4
2018-08-12T05:50:52.077Z,24.7
2018-08-12T05:51:42.426Z,25
2018-08-12T05:52:32.497Z,25.3
2018-08-12T05:53:22.364Z,25.6
2018-08-12T05:54:12.609Z,25.8
2018-08-12T05:55:02.674Z,26.1
2018-08-12T05:55:52.738Z,26.5
2018-08-12T05:56:42.796Z,26.9
2018-08-12T05:57:32.878Z,27.3
2018-08-12T05:59:12.714Z,28.3
2018-08-12T06:00:03.092Z,28.8
2018-08-12T06:00:52.838Z,29.4
2018-08-12T06:01:43.178Z,29.9
2018-08-12T06:02:33.384Z,30.4
2018-08-12T06:03:23.309Z,30.9
2018-08-12T06:04:13.373Z,31.2
2018-08-12T06:05:03.458Z,31.6
2018-08-12T06:05:53.223Z,31.8
2018-08-12T06:06:43.577Z,32
2018-08-12T06:07:33.654Z,32.2
2018-08-12T06:08:23.446Z,32.5
2018-08-12T06:09:13.761Z,32.8
2018-08-12T06:10:03.831Z,33.3
2018-08-12T06:10:53.872Z,33.8
2018-08-12T06:11:43.965Z,34.3
2018-08-12T06:12:34.018Z,34.9
2018-08-12T06:13:24.075Z,35.6
2018-08-12T06:14:14.150Z,36.2
2018-08-12T06:15:03.936Z,36.8
2018-08-12T06:15:54.318Z,37.4
2018-08-12T06:16:44.341Z,38
2018-08-12T06:17:34.963Z,38.6
2018-08-12T06:18:24.467Z,39.2
2018-08-12T06:19:14.523Z,39.7
2018-08-12T06:20:04.309Z,37.1
2018-08-12T06:20:54.659Z,22.8
2018-08-12T06:21:44.716Z,33.8
2018-08-12T06:22:34.783Z,45.4
2018-08-12T06:23:24.842Z,45.5
2018-08-12T06:24:14.898Z,45.3
2018-08-12T06:25:04.985Z,44.9
2018-08-12T06:25:55.059Z,44.3
2018-08-12T06:26:45.090Z,43.9
2018-08-12T06:27:35.180Z,43.8
2018-08-12T06:28:24.950Z,43.6
2018-08-12T06:29:15.014Z,43.4
2018-08-12T06:30:05.375Z,43.3
2018-08-12T06:30:55.440Z,43.3
2018-08-12T06:31:45.212Z,43.2
2018-08-12T06:32:35.622Z,43.1
2018-08-12T06:33:25.640Z,43.1
2018-08-12T06:34:15.501Z,43.1
2018-08-12T06:35:05.461Z,43.1
2018-08-12T06:35:55.240Z,43.2
2018-08-12T06:36:45.894Z,43.3
2018-08-12T06:37:35.956Z,43.4
2018-08-12T06:38:25.719Z,43.6
2018-08-12T06:39:16.068Z,43.8
2018-08-12T06:40:05.856Z,44.1
2018-08-12T06:40:56.194Z,44.3
2018-08-12T06:41:46.277Z,44.6
2018-08-12T06:42:36.337Z,45
2018-08-12T06:43:26.386Z,45.4
2018-08-12T06:44:16.469Z,45.8
2018-08-12T06:45:06.521Z,46.3
2018-08-12T06:45:56.603Z,43.6
2018-08-12T06:46:46.639Z,43.8
2018-08-12T06:47:36.416Z,49
2018-08-12T06:48:26.484Z,49.7
2018-08-12T06:49:16.832Z,51.7
2018-08-12T06:50:06.894Z,53.1
2018-08-12T06:50:56.690Z,53.1
2018-08-12T06:51:47.246Z,52.7
2018-08-12T06:52:36.804Z,52.4
2018-08-12T06:53:27.147Z,52.6
2018-08-12T06:54:16.936Z,52.9
2018-08-12T06:55:07.288Z,53.3
2018-08-12T06:55:57.361Z,53.6
2018-08-12T06:56:47.417Z,53.8
2018-08-12T06:57:37.203Z,53.9
2018-08-12T06:58:27.555Z,53.9
2018-08-12T06:59:17.624Z,54.1
2018-08-12T07:00:07.387Z,54.3
2018-08-12T07:00:57.722Z,54.4
2018-08-12T07:01:47.801Z,54.5
2018-08-12T07:02:37.917Z,54.6
2018-08-12T07:03:27.917Z,54.8
2018-08-12T07:04:18.000Z,54.8
2018-08-12T07:05:08.054Z,54.9
2018-08-12T07:05:58.122Z,54.9
2018-08-12T07:06:47.907Z,55
2018-08-12T07:07:38.499Z,55.1
2018-08-12T07:08:27.737Z,55.3
2018-08-12T07:09:18.435Z,55.3
2018-08-12T07:10:08.439Z,55.4
2018-08-12T07:10:58.501Z,55.4
2018-08-12T07:11:48.573Z,55.5
2018-08-12T07:12:38.344Z,55.6
2018-08-12T07:13:28.690Z,55.6
2018-08-12T07:14:18.636Z,55.7
2018-08-12T07:15:08.819Z,55.8
2018-08-12T07:15:58.899Z,55.9
2018-08-12T07:16:48.662Z,56
2018-08-12T07:17:38.761Z,56.1
2018-08-12T07:18:29.066Z,56.1
2018-08-12T07:19:19.136Z,56.3
2018-08-12T07:20:09.208Z,56.3
2018-08-12T07:20:59.268Z,56.4
2018-08-12T07:21:49.352Z,56.6
2018-08-12T07:22:39.407Z,56.7
2018-08-12T07:23:29.467Z,56.8
2018-08-12T07:24:19.526Z,56.8
2018-08-12T07:25:09.586Z,56.9
2018-08-12T07:25:59.667Z,56.9
2018-08-12T07:26:49.439Z,57.1
2018-08-12T07:27:39.797Z,57.2
2018-08-12T07:28:29.870Z,57.1
2018-08-12T07:29:19.958Z,56.9
2018-08-12T07:30:09.957Z,56.5
2018-08-12T07:30:59.780Z,56.2
2018-08-12T07:31:50.113Z,55.8
2018-08-12T07:32:40.172Z,55.4
2018-08-12T07:33:30.245Z,55.1
2018-08-12T07:34:20.300Z,54.6
2018-08-12T07:35:10.351Z,54.1
2018-08-12T07:36:00.433Z,53.4
2018-08-12T07:36:50.208Z,52.6
2018-08-12T07:37:40.556Z,51.8
2018-08-12T07:38:30.606Z,51.1
2018-08-12T07:39:20.695Z,50.3
2018-08-12T07:40:10.775Z,49.6
2018-08-12T07:41:00.811Z,48.9
2018-08-12T07:41:50.872Z,48.1
2018-08-12T07:42:40.691Z,47.4
2018-08-12T07:43:30.722Z,46.5
2018-08-12T07:44:21.071Z,45.6
2018-08-12T07:45:11.133Z,44.9
2018-08-12T07:46:01.209Z,44.2
2018-08-12T07:46:50.978Z,43.7
2018-08-12T07:47:41.035Z,43.1
2018-08-12T07:48:31.403Z,42.5
2018-08-12T07:49:20.904Z,42.3
2018-08-12T07:50:11.564Z,42.4
2018-08-12T07:51:01.599Z,42.5
2018-08-12T07:51:51.648Z,42.7
2018-08-12T07:52:41.435Z,42.8
2018-08-12T07:53:31.779Z,42.8
2018-08-12T07:54:21.856Z,42.9
2018-08-12T07:55:11.913Z,42.9
2018-08-12T07:56:01.983Z,42.7
2018-08-12T07:56:51.750Z,42.1
2018-08-12T07:57:42.102Z,41.6
2018-08-12T07:58:31.890Z,41.1
2018-08-12T07:59:22.244Z,40.6
2018-08-12T08:00:12.304Z,40.1
2018-08-12T08:01:02.363Z,39.7
2018-08-12T08:01:52.414Z,39.3
2018-08-12T08:02:42.487Z,38.8
2018-08-12T08:03:32.545Z,38.4
2018-08-12T08:04:22.319Z,38.4
2018-08-12T08:05:12.678Z,38.4
2018-08-12T08:06:02.751Z,38.3
2018-08-12T08:06:52.793Z,37.8
2018-08-12T08:07:42.861Z,37.4
2018-08-12T08:08:32.934Z,37.1
2018-08-12T08:09:23.008Z,37.1
2018-08-12T08:10:12.803Z,37.3
2018-08-12T08:11:03.159Z,37.4
2018-08-12T08:11:52.925Z,37.6
2018-08-12T08:12:43.304Z,37.8
2018-08-12T08:13:33.032Z,37.9
2018-08-12T08:14:23.391Z,38.1
2018-08-12T08:15:13.462Z,38.2
2018-08-12T08:16:03.237Z,38.4
2018-08-12T08:16:53.594Z,38.6
2018-08-12T08:17:43.660Z,38.8
2018-08-12T08:18:33.747Z,39.1
2018-08-12T08:19:23.514Z,39.3
2018-08-12T08:20:13.872Z,39.4
2018-08-12T08:21:03.653Z,39.7
2018-08-12T08:21:53.980Z,39.9
2018-08-12T08:22:43.777Z,40.1
2018-08-12T08:23:34.122Z,40.3
2018-08-12T08:24:24.163Z,40.4
2018-08-12T08:25:14.265Z,40.6
2018-08-12T08:26:04.297Z,40.8
2018-08-12T08:26:54.368Z,40.9
2018-08-12T08:27:44.477Z,41.1
2018-08-12T08:28:34.486Z,41.3
2018-08-12T08:29:24.266Z,41.4
2018-08-12T08:30:14.616Z,41.6
2018-08-12T08:31:04.679Z,41.8
2018-08-12T08:31:56.155Z,41.9
2018-08-12T08:32:44.526Z,42.1
2018-08-12T08:33:34.890Z,42.1
2018-08-12T08:34:24.945Z,42.3
2018-08-12T08:35:15.005Z,42.3
2018-08-12T08:36:04.777Z,42.5
2018-08-12T08:36:55.134Z,42.6
2018-08-12T08:37:45.217Z,42.8
2018-08-12T08:38:35.286Z,42.9
2018-08-12T08:39:25.332Z,43
2018-08-12T08:40:15.091Z,43.2
2018-08-12T08:41:05.161Z,43.3
2018-08-12T08:41:55.504Z,43.2
2018-08-12T08:42:45.290Z,43.2
2018-08-12T08:43:35.368Z,43.3
2018-08-12T08:44:25.716Z,43.4
2018-08-12T08:45:15.766Z,43.6
2018-08-12T08:46:05.856Z,43.8
2018-08-12T08:46:55.915Z,43.9
2018-08-12T08:47:45.957Z,44.1
2018-08-12T08:48:36.054Z,44.2
2018-08-12T08:49:26.104Z,44.4
2018-08-12T08:50:15.867Z,44.5
2018-08-12T08:51:06.233Z,44.7
2018-08-12T08:51:56.303Z,44.9
2018-08-12T08:52:46.069Z,45.1
2018-08-12T08:53:36.131Z,45.3
2018-08-12T08:54:26.202Z,45.4
2018-08-12T08:55:16.540Z,45.7
2018-08-12T08:56:06.820Z,45.9
2018-08-12T08:56:56.691Z,46.1
2018-08-12T08:57:46.459Z,46.3
2018-08-12T08:58:36.510Z,46.4
2018-08-12T08:59:26.882Z,46.6
2018-08-12T09:00:16.653Z,46.9
2018-08-12T09:01:07.015Z,47.1
2018-08-12T09:01:56.824Z,47.4
2018-08-12T09:02:47.128Z,47.6
2018-08-12T09:03:37.188Z,47.9
2018-08-12T09:04:27.298Z,48.1
2018-08-12T09:20:53.033Z,51.8
2018-08-12T09:22:33.178Z,52.1
2018-08-12T09:23:22.943Z,52.3
2018-08-12T09:25:03.353Z,52.5
2018-08-12T09:25:53.145Z,52.7
2018-08-12T09:26:43.473Z,52.9
2018-08-12T09:27:33.543Z,53.1
2018-08-12T09:28:23.318Z,53.2
2018-08-12T09:29:13.681Z,53.1
2018-08-12T09:30:03.757Z,52.9
2018-08-12T09:30:53.514Z,53
2018-08-12T09:31:43.864Z,53.3
2018-08-12T09:32:33.927Z,53.7
2018-08-12T09:33:23.987Z,53.9
2018-08-12T09:34:14.053Z,54
2018-08-12T09:35:04.159Z,54.1
2018-08-12T09:35:53.907Z,54.3
2018-08-12T09:36:43.967Z,54.6
2018-08-12T09:37:34.052Z,54.8
2018-08-12T09:38:24.385Z,55
2018-08-12T09:39:14.443Z,55.2
2018-08-12T09:40:04.234Z,55.4
2018-08-12T09:40:54.599Z,55.5
2018-08-12T09:41:44.365Z,55.8
2018-08-12T09:42:34.724Z,55.9
2018-08-12T09:43:24.794Z,56.1
2018-08-12T09:44:14.861Z,56.3
2018-08-12T09:45:04.628Z,56.4
2018-08-12T09:45:54.973Z,56.5
2018-08-12T09:46:45.038Z,56.7
2018-08-12T09:47:34.836Z,56.8
2018-08-12T09:48:24.888Z,56.9
2018-08-12T09:49:15.053Z,57
2018-08-12T09:50:05.347Z,57.1
2018-08-12T09:50:55.084Z,57.2
2018-08-12T09:51:46.115Z,57.3
2018-08-12T09:52:35.485Z,57.1
2018-08-12T09:53:25.550Z,57
2018-08-12T09:54:15.369Z,56.9
2018-08-12T09:55:05.412Z,56.8
2018-08-12T09:55:55.742Z,56.7
2018-08-12T09:56:45.815Z,56.7
2018-08-12T09:57:35.880Z,56.9
2018-08-12T09:58:26.236Z,57.1
2018-08-12T09:59:16.006Z,57.1
2018-08-12T10:00:06.082Z,57.1
2018-08-12T10:00:55.861Z,57.3
2018-08-12T10:01:46.199Z,57.7
2018-08-12T10:02:36.268Z,58
2018-08-12T10:03:26.326Z,58.2
2018-08-12T10:04:16.388Z,58.4
2018-08-12T10:05:56.246Z,58.7
2018-08-12T10:06:46.331Z,58.8
2018-08-12T10:07:37.293Z,58.7
2018-08-12T10:08:26.726Z,58.4
2018-08-12T10:09:16.794Z,58.3
2018-08-12T10:10:06.621Z,58
2018-08-12T10:10:56.647Z,57.9
2018-08-12T10:12:37.096Z,57.6
2018-08-12T10:13:26.575Z,57.5
2018-08-12T10:14:17.180Z,57.6
2018-08-12T10:15:07.263Z,58.1
2018-08-12T10:15:57.033Z,58.6
2018-08-12T10:16:47.104Z,58.9
2018-08-12T10:17:37.457Z,59.1
2018-08-12T10:18:27.525Z,59.3
2018-08-12T10:19:17.569Z,59.3
2018-08-12T10:20:07.632Z,59.4
2018-08-12T10:20:57.449Z,59.6
2018-08-12T10:21:47.762Z,59.8
2018-08-12T10:22:37.848Z,59.9
2018-08-12T10:23:27.904Z,60
2018-08-12T10:24:17.953Z,60.1
2018-08-12T10:25:07.493Z,60.3
2018-08-12T10:25:57.828Z,60.3
2018-08-12T10:26:47.885Z,60.4
2018-08-12T10:27:38.225Z,60.6
2018-08-12T10:28:27.750Z,60.6
2018-08-12T10:29:18.716Z,60.8
2018-08-12T10:30:08.416Z,60.9
2018-08-12T10:30:58.218Z,61
2018-08-12T10:31:48.538Z,61.1
2018-08-12T10:32:38.610Z,61.2
2018-08-12T10:33:28.683Z,61.3
2018-08-12T10:34:18.732Z,61.4
2018-08-12T10:35:08.805Z,61.3
2018-08-12T10:35:58.873Z,61.3
2018-08-12T10:36:48.924Z,61.4
2018-08-12T10:37:38.736Z,61.6
2018-08-12T10:38:29.061Z,61.8
2018-08-12T10:39:19.123Z,61.9
2018-08-12T10:40:08.629Z,61.9
2018-08-12T10:40:59.243Z,62
2018-08-12T10:41:49.341Z,62.1
2018-08-12T10:42:39.387Z,62.1
2018-08-12T10:43:29.460Z,62.2
2018-08-12T10:44:19.914Z,62.3
2018-08-12T10:45:09.591Z,62.4
2018-08-12T10:45:59.653Z,62.4
2018-08-12T10:46:49.449Z,62.4
2018-08-12T10:47:39.779Z,62.6
2018-08-12T10:48:29.569Z,62.7
2018-08-12T10:49:19.911Z,62.8
2018-08-12T10:50:09.719Z,62.8
2018-08-12T10:51:00.219Z,62.6
2018-08-12T10:51:50.127Z,62.6
2018-08-12T10:52:40.210Z,62.4
2018-08-12T10:53:30.288Z,62.4
2018-08-12T10:54:20.294Z,62.6
2018-08-12T10:55:10.383Z,62.9
2018-08-12T10:56:00.150Z,63
2018-08-12T10:56:50.226Z,63.1
2018-08-12T10:57:40.561Z,63.1
2018-08-12T10:58:30.349Z,63.3
2018-08-12T10:59:20.958Z,63.3
2018-08-12T11:00:10.490Z,63.4
2018-08-12T11:01:00.814Z,63.5
2018-08-12T11:01:50.894Z,63.6
2018-08-12T11:02:40.993Z,63.6
2018-08-12T11:03:31.015Z,63.8
2018-08-12T11:04:21.077Z,63.8
2018-08-12T11:05:11.152Z,63.9
2018-08-12T11:06:01.257Z,63.9
2018-08-12T11:06:51.098Z,64
2018-08-12T11:07:41.357Z,63.9
2018-08-12T11:08:31.134Z,63.9
2018-08-12T11:09:21.205Z,63.9
2018-08-12T11:10:11.560Z,64.1
2018-08-12T11:11:01.596Z,64.2
2018-08-12T11:11:51.381Z,64.3
2018-08-12T11:12:42.014Z,64.4
2018-08-12T11:13:31.810Z,64.5
2018-08-12T11:14:21.868Z,64.5
2018-08-12T11:15:11.928Z,64.4
2018-08-12T11:16:02.010Z,64.4
2018-08-12T11:16:51.784Z,64.3
2018-08-12T11:17:42.179Z,64.1
2018-08-12T11:18:32.193Z,63.8
2018-08-12T11:19:22.241Z,63.6
2018-08-12T11:20:12.333Z,63.4
2018-08-12T11:21:02.114Z,63.3
2018-08-12T11:21:52.451Z,63.2
2018-08-12T11:22:42.529Z,63.1
2018-08-12T11:23:32.581Z,63.1
2018-08-12T11:24:22.631Z,63
2018-08-12T11:25:12.722Z,62.8
2018-08-12T11:26:02.501Z,62.9
2018-08-12T11:26:52.834Z,63.3
2018-08-12T11:27:42.913Z,63.8
2018-08-12T11:28:33.251Z,64.1
2018-08-12T11:29:23.058Z,64.2
2018-08-12T11:30:13.097Z,64.3
2018-08-12T11:31:03.211Z,64.3
2018-08-12T11:31:52.954Z,64.3
2018-08-12T11:32:42.744Z,64.5
2018-08-12T11:33:33.365Z,64.6
2018-08-12T11:34:23.412Z,64.7
2018-08-12T11:35:13.485Z,64.8
2018-08-12T11:36:03.281Z,64.8
2018-08-12T11:36:53.629Z,64.9
2018-08-12T11:37:43.742Z,65
2018-08-12T11:38:33.739Z,65.1
2018-08-12T11:39:23.540Z,65.1
2018-08-12T11:40:13.915Z,65.1
2018-08-12T11:41:03.710Z,65.1
2018-08-12T11:41:54.024Z,65.2
2018-08-12T11:42:44.096Z,65.2
2018-08-12T11:43:34.138Z,65.3
2018-08-12T11:44:23.913Z,65.3
2018-08-12T11:45:14.269Z,65.4
2018-08-12T11:46:04.335Z,65.4
2018-08-12T11:46:54.397Z,65.5
2018-08-12T11:47:44.463Z,65.6
2018-08-12T11:48:34.514Z,65.6
2018-08-12T11:49:24.579Z,65.6
2018-08-12T11:50:14.385Z,65.6
2018-08-12T11:51:04.732Z,65.7
2018-08-12T11:51:54.779Z,65.8
2018-08-12T11:52:44.848Z,65.8
2018-08-12T11:53:34.920Z,65.8
2018-08-12T11:54:24.708Z,65.9
2018-08-12T11:55:14.766Z,65.9
2018-08-12T11:56:04.849Z,65.9
2018-08-12T11:56:55.334Z,65.9
2018-08-12T11:57:44.688Z,65.9
2018-08-12T11:58:35.334Z,66
2018-08-12T11:59:25.384Z,66.1
2018-08-12T12:00:14.878Z,66.1
2018-08-12T12:01:05.515Z,66.2
2018-08-12T12:01:55.569Z,66.2
2018-08-12T12:02:45.644Z,66.3
2018-08-12T12:03:35.417Z,66.3
2018-08-12T12:04:26.187Z,66.4
2018-08-12T12:05:15.841Z,66.4
2018-08-12T12:06:05.896Z,66.4